createdAt,value
2023-01-30T00:00:12.475Z,29.10
2023-01-30T00:03:07.624Z,26.75
2023-01-30T00:05:56.213Z,27.45
2023-01-30T00:08:45.023Z,29.58
2023-01-30T00:11:35.505Z,26.58
2023-01-30T00:14:39.463Z,31.38
2023-01-30T00:20:40.777Z,28.95
2023-01-30T00:23:41.184Z,25.67
2023-01-30T00:26:28.945Z,26.58
2023-01-30T00:29:23.723Z,28.35
2023-01-30T00:32:23.483Z,24.65
2023-01-30T00:35:34.505Z,28.15
2023-01-30T00:49:20.374Z,28.27
2023-01-30T00:52:35.953Z,26.98
2023-01-30T00:55:46.696Z,29.05
2023-01-30T00:58:35.129Z,24.70
2023-01-30T01:01:26.194Z,26.58
2023-01-30T01:04:14.643Z,24.90
2023-01-30T01:07:26.831Z,26.05
2023-01-30T01:10:23.988Z,27.35
2023-01-30T01:14:21.445Z,29.33
2023-01-30T01:17:48.070Z,27.80
2023-01-30T01:23:25.465Z,25.48
2023-01-30T01:29:10.084Z,28.88
2023-01-30T01:32:06.090Z,25.35
2023-01-30T01:35:04.901Z,28.50
2023-01-30T01:41:05.247Z,28.40
2023-01-30T01:44:06.918Z,26.00
2023-01-30T01:47:12.754Z,27.35
2023-01-30T01:50:29.348Z,30.55
2023-01-30T01:53:28.165Z,29.67
2023-01-30T01:56:26.222Z,26.83
2023-01-30T01:59:43.414Z,29.33
2023-01-30T02:02:45.784Z,27.38
2023-01-30T02:05:44.568Z,28.98
2023-01-30T02:08:35.030Z,29.52
2023-01-30T02:11:51.268Z,27.42
2023-01-30T02:15:19.195Z,28.40
2023-01-30T02:18:14.955Z,28.90
2023-01-30T02:25:18.536Z,27.00
2023-01-30T02:28:43.061Z,27.67
2023-01-30T02:31:46.295Z,29.65
2023-01-30T02:35:13.712Z,24.00
2023-01-30T02:38:23.377Z,27.20
2023-01-30T02:41:52.556Z,31.38
2023-01-30T02:45:17.473Z,27.05
2023-01-30T02:48:31.012Z,26.55
2023-01-30T02:51:40.173Z,28.45
2023-01-30T02:54:30.715Z,27.48
2023-01-30T02:57:47.880Z,28.08
2023-01-30T03:01:10.836Z,28.05
2023-01-30T03:11:18.078Z,27.45
2023-01-30T03:14:36.523Z,26.42
2023-01-30T03:17:46.503Z,26.70
2023-01-30T03:21:17.082Z,27.05
2023-01-30T03:24:13.500Z,24.85
2023-01-30T03:27:37.145Z,25.70
2023-01-30T03:30:43.085Z,24.33
2023-01-30T03:37:26.081Z,28.88
2023-01-30T03:40:37.350Z,26.77
2023-01-30T03:43:28.308Z,25.00
2023-01-30T03:46:30.076Z,26.20
2023-01-30T03:49:26.642Z,26.65
2023-01-30T03:52:14.221Z,23.73
2023-01-30T03:55:02.446Z,26.23
2023-01-30T03:58:05.375Z,21.13
2023-01-30T04:01:13.711Z,23.63
2023-01-30T04:04:15.953Z,26.13
2023-01-30T04:07:03.592Z,24.52
2023-01-30T04:09:57.755Z,25.40
2023-01-30T04:13:05.049Z,24.60
2023-01-30T04:16:32.311Z,28.25
2023-01-30T04:19:26.013Z,25.95
2023-01-30T04:22:13.853Z,27.58
2023-01-30T04:25:01.814Z,21.55
2023-01-30T04:28:06.203Z,23.88
2023-01-30T04:30:57.737Z,29.17
2023-01-30T04:33:45.860Z,23.17
2023-01-30T04:36:51.713Z,23.40
2023-01-30T04:39:39.895Z,28.35
2023-01-30T04:42:37.138Z,31.17
2023-01-30T04:45:27.922Z,28.17
2023-01-30T04:48:21.253Z,34.05
2023-01-30T04:51:35.229Z,32.63
2023-01-30T04:54:30.334Z,27.65
2023-01-30T05:00:30.807Z,28.48
2023-01-30T05:03:27.908Z,33.35
2023-01-30T05:12:39.351Z,29.42
2023-01-30T05:15:33.042Z,27.52
2023-01-30T05:18:26.279Z,27.88
2023-01-30T05:21:30.477Z,25.27
2023-01-30T05:24:35.632Z,30.65
2023-01-30T05:27:35.136Z,31.40
2023-01-30T05:30:29.393Z,25.88
2023-01-30T05:33:26.683Z,30.63
2023-01-30T05:39:28.345Z,31.85
2023-01-30T05:42:38.284Z,28.05
2023-01-30T05:45:33.604Z,24.80
2023-01-30T05:49:00.110Z,33.05
2023-01-30T05:51:49.933Z,29.92
2023-01-30T05:54:45.556Z,30.08
2023-01-30T05:58:03.751Z,28.02
2023-01-30T06:00:56.212Z,27.50
2023-01-30T06:03:48.826Z,27.25
2023-01-30T06:06:39.952Z,30.95
2023-01-30T06:09:47.943Z,28.88
2023-01-30T06:12:46.180Z,32.97
2023-01-30T06:15:42.029Z,25.48
2023-01-30T06:18:37.995Z,28.17
2023-01-30T06:21:37.587Z,29.88
2023-01-30T06:24:43.390Z,28.25
2023-01-30T06:27:34.625Z,23.08
2023-01-30T06:33:50.568Z,27.65
2023-01-30T06:39:57.027Z,23.67
2023-01-30T06:42:52.003Z,25.38
2023-01-30T06:48:49.536Z,23.67
2023-01-30T06:51:37.407Z,19.52
2023-01-30T06:54:25.068Z,20.88
2023-01-30T06:57:12.860Z,21.67
2023-01-30T07:00:00.819Z,22.50
2023-01-30T07:02:51.416Z,21.00
2023-01-30T07:05:45.202Z,17.90
2023-01-30T07:11:34.315Z,22.98
2023-01-30T07:14:25.061Z,19.15
2023-01-30T07:17:13.189Z,21.98
2023-01-30T07:20:30.274Z,18.90
2023-01-30T07:23:18.228Z,25.17
2023-01-30T07:26:07.071Z,18.45
2023-01-30T07:29:02.629Z,19.90
2023-01-30T07:31:53.708Z,20.85
2023-01-30T07:34:47.660Z,21.40
2023-01-30T07:37:43.281Z,18.15
2023-01-30T07:40:33.784Z,16.40
2023-01-30T07:46:49.901Z,19.08
2023-01-30T07:49:38.722Z,19.67
2023-01-30T07:52:41.471Z,23.13
2023-01-30T07:55:46.810Z,20.90
2023-01-30T07:58:37.927Z,22.65
2023-01-30T08:01:29.893Z,21.85
2023-01-30T08:04:25.837Z,23.67
2023-01-30T08:07:41.231Z,24.65
2023-01-30T08:10:32.229Z,21.20
2023-01-30T08:13:49.201Z,22.80
2023-01-30T08:19:53.184Z,28.10
2023-01-30T08:22:48.102Z,22.92
2023-01-30T08:25:54.253Z,27.58
2023-01-30T08:28:46.806Z,27.63
2023-01-30T08:31:45.086Z,26.05
2023-01-30T08:34:42.160Z,25.42
2023-01-30T08:38:17.930Z,25.65
2023-01-30T08:45:25.686Z,25.83
2023-01-30T08:48:29.875Z,23.38
2023-01-30T08:51:32.577Z,24.30
2023-01-30T09:01:26.558Z,21.65
2023-01-30T09:05:44.059Z,24.48
2023-01-30T09:08:23.309Z,26.20
2023-01-30T09:14:33.406Z,24.05
2023-01-30T09:21:23.857Z,22.40
2023-01-30T09:24:51.472Z,23.80
2023-01-30T09:28:05.897Z,19.20
2023-01-30T09:31:09.893Z,21.10
2023-01-30T09:37:07.354Z,19.75
2023-01-30T09:39:55.621Z,18.20
2023-01-30T09:43:19.424Z,17.23
2023-01-30T09:47:02.331Z,15.07
2023-01-30T09:50:31.275Z,16.58
2023-01-30T09:53:42.883Z,15.75
2023-01-30T09:56:32.703Z,16.70
2023-01-30T09:59:38.868Z,13.85
2023-01-30T10:02:57.480Z,15.82
2023-01-30T10:06:03.432Z,13.50
2023-01-30T10:09:37.016Z,12.60
2023-01-30T10:12:52.384Z,13.05
2023-01-30T10:19:55.445Z,9.43
2023-01-30T10:23:22.852Z,10.70
2023-01-30T10:26:27.244Z,9.63
2023-01-30T10:33:06.629Z,7.80
2023-01-30T10:36:09.067Z,8.50
2023-01-30T10:42:27.615Z,7.18
2023-01-30T10:52:11.681Z,8.02
2023-01-30T10:55:51.990Z,7.55
2023-01-30T10:59:32.246Z,8.07
2023-01-30T11:02:51.893Z,7.82
2023-01-30T11:07:02.394Z,7.72
2023-01-30T11:12:44.865Z,6.90
2023-01-30T11:15:42.887Z,7.43
2023-01-30T11:21:44.858Z,6.97
2023-01-30T11:24:41.418Z,6.07
2023-01-30T11:27:38.851Z,5.47
2023-01-30T11:30:35.615Z,4.70
2023-01-30T11:33:40.641Z,4.80
2023-01-30T11:36:55.699Z,4.03
2023-01-30T11:39:55.459Z,4.18
2023-01-30T11:42:51.658Z,4.05
2023-01-30T11:45:44.440Z,4.18
2023-01-30T11:49:11.089Z,4.05
2023-01-30T11:51:58.145Z,3.60
2023-01-30T11:54:48.177Z,4.50
2023-01-30T11:57:50.872Z,3.58
2023-01-30T12:00:40.152Z,3.38
2023-01-30T12:03:31.722Z,3.35
2023-01-30T12:06:45.886Z,3.38
2023-01-30T12:09:41.147Z,2.83
2023-01-30T12:12:37.639Z,3.85
2023-01-30T12:15:29.047Z,3.08
2023-01-30T12:18:40.322Z,4.13
2023-01-30T12:21:46.315Z,2.85
2023-01-30T12:25:02.077Z,3.13
2023-01-30T12:30:57.582Z,3.17
2023-01-30T12:33:45.649Z,3.42
2023-01-30T12:40:40.609Z,2.90
2023-01-30T12:47:50.578Z,3.17
2023-01-30T13:01:50.458Z,3.33
2023-01-30T13:05:27.128Z,2.60
2023-01-30T13:08:22.950Z,3.55
2023-01-30T13:18:15.756Z,2.67
2023-01-30T13:21:21.423Z,2.88
2023-01-30T13:27:52.356Z,3.60
2023-01-30T13:30:42.133Z,3.03
2023-01-30T13:33:36.462Z,3.10
2023-01-30T13:40:08.407Z,4.00
2023-01-30T13:43:08.145Z,3.97
2023-01-30T13:46:18.025Z,3.78
2023-01-30T13:53:06.996Z,3.40
2023-01-30T14:12:58.508Z,3.22
2023-01-30T14:16:35.172Z,2.95
2023-01-30T14:19:40.893Z,3.42
2023-01-30T14:22:39.940Z,3.65
2023-01-30T14:25:49.068Z,3.53
2023-01-30T14:28:47.527Z,3.42
2023-01-30T14:35:02.583Z,3.47
2023-01-30T14:38:16.986Z,3.65
2023-01-30T14:41:07.677Z,3.45
2023-01-30T14:50:27.180Z,3.38
2023-01-30T14:53:18.093Z,3.92
2023-01-30T14:56:15.152Z,3.70
2023-01-30T15:03:15.861Z,3.55
2023-01-30T15:06:12.474Z,3.88
2023-01-30T15:09:21.649Z,3.95
2023-01-30T15:12:48.580Z,4.07
2023-01-30T15:19:32.525Z,3.45
2023-01-30T15:22:36.471Z,3.55
2023-01-30T15:26:05.209Z,3.25
2023-01-30T15:33:50.024Z,3.83
2023-01-30T15:36:44.909Z,3.83
2023-01-30T15:43:19.163Z,3.13
2023-01-30T15:49:25.949Z,4.05
2023-01-30T16:08:38.799Z,4.10
2023-01-30T16:15:29.804Z,3.53
2023-01-30T16:21:41.434Z,4.25
2023-01-30T16:24:50.803Z,3.85
2023-01-30T16:27:42.985Z,5.68
2023-01-30T16:30:45.918Z,4.13
2023-01-30T17:47:13.375Z,5.55
2023-01-30T17:50:11.494Z,5.18
2023-01-30T17:57:33.937Z,5.13
2023-01-30T18:03:57.698Z,5.35
2023-01-30T18:07:49.016Z,5.30
2023-01-30T18:10:46.105Z,4.85
2023-01-30T18:14:00.407Z,5.35
2023-01-30T18:17:05.555Z,4.95
2023-01-30T18:20:13.086Z,4.90
2023-01-30T18:26:23.850Z,5.25
2023-01-30T18:29:35.483Z,5.75
2023-01-30T18:33:13.615Z,5.90
2023-01-30T18:43:35.684Z,6.43
2023-01-30T18:50:13.841Z,6.10
2023-01-30T18:53:35.784Z,5.22
2023-01-30T18:56:43.334Z,6.63
2023-01-30T19:00:02.764Z,5.88
2023-01-30T19:03:08.875Z,6.72
2023-01-30T19:06:24.012Z,7.53
2023-01-30T19:09:31.062Z,6.07
2023-01-30T19:13:00.416Z,6.63
2023-01-30T19:16:13.378Z,9.02
2023-01-30T19:19:53.741Z,6.70
2023-01-30T19:26:24.828Z,5.72
2023-01-30T19:29:20.822Z,5.93
2023-01-30T19:32:14.518Z,7.15
2023-01-30T19:38:19.929Z,5.43
2023-01-30T19:45:27.877Z,6.78
2023-01-30T19:48:32.845Z,6.20
2023-01-30T19:51:49.775Z,6.57
2023-01-30T19:54:47.459Z,6.57
2023-01-30T19:57:43.176Z,5.68
2023-01-30T20:00:41.574Z,6.60
2023-01-30T20:03:59.113Z,6.13
2023-01-30T20:06:51.362Z,6.55
2023-01-30T20:10:22.716Z,6.82
2023-01-30T20:13:13.377Z,5.55
2023-01-30T20:16:06.511Z,5.57
2023-01-30T20:19:14.753Z,6.85
2023-01-30T20:22:08.183Z,5.72
2023-01-30T20:24:56.011Z,6.80
2023-01-30T20:27:45.480Z,5.88
2023-01-30T20:30:33.183Z,5.97
2023-01-30T20:33:20.677Z,6.93
2023-01-30T20:36:11.099Z,5.55
2023-01-30T20:39:04.351Z,5.72
2023-01-30T20:41:55.266Z,6.07
2023-01-30T20:44:43.051Z,6.00
2023-01-30T20:47:30.813Z,6.60
2023-01-30T20:50:18.993Z,6.63
2023-01-30T20:53:06.648Z,6.57
2023-01-30T20:55:57.574Z,5.10
2023-01-30T20:58:45.533Z,7.10
2023-01-30T21:01:34.199Z,6.70
2023-01-30T21:04:24.288Z,7.45
2023-01-30T21:07:12.174Z,5.72
2023-01-30T21:09:59.874Z,6.53
2023-01-30T21:12:47.559Z,6.57
2023-01-30T21:15:35.344Z,5.85
2023-01-30T21:18:23.017Z,6.28
2023-01-30T21:21:20.720Z,5.70
2023-01-30T21:24:12.721Z,6.95
2023-01-30T21:27:00.610Z,7.75
2023-01-30T21:29:48.250Z,5.97
2023-01-30T21:32:35.956Z,6.15
2023-01-30T21:35:23.630Z,5.05
2023-01-30T21:38:29.993Z,4.82
2023-01-30T21:41:43.563Z,5.07
2023-01-30T21:44:33.597Z,5.38
2023-01-30T21:47:21.191Z,5.30
2023-01-30T21:50:09.381Z,4.57
2023-01-30T21:52:57.383Z,6.97
2023-01-30T21:55:51.520Z,7.22
2023-01-30T21:58:39.092Z,5.82
2023-01-30T22:01:27.882Z,6.13
2023-01-30T22:04:15.992Z,5.07
2023-01-30T22:07:06.447Z,5.78
2023-01-30T22:09:54.541Z,6.43
2023-01-30T22:12:42.173Z,5.85
2023-01-30T22:15:29.922Z,6.32
2023-01-30T22:18:20.208Z,6.18
2023-01-30T22:21:14.193Z,6.35
2023-01-30T22:26:52.187Z,5.82
2023-01-30T22:29:42.273Z,5.95
2023-01-30T22:32:29.767Z,6.05
2023-01-30T22:35:21.211Z,5.97
2023-01-30T22:38:09.065Z,5.20
2023-01-30T22:41:14.568Z,5.97
2023-01-30T22:44:04.235Z,6.18
2023-01-30T22:46:52.407Z,4.97
2023-01-30T22:49:39.934Z,5.68
2023-01-30T22:52:27.609Z,5.63
2023-01-30T22:55:15.225Z,5.05
2023-01-30T22:58:02.862Z,4.72
2023-01-30T23:00:50.422Z,5.10
2023-01-30T23:03:38.547Z,5.15
2023-01-30T23:06:27.313Z,5.57
2023-01-30T23:09:20.585Z,4.85
2023-01-30T23:12:26.701Z,5.85
2023-01-30T23:15:14.308Z,4.97
2023-01-30T23:18:20.201Z,5.07
2023-01-30T23:21:11.689Z,5.40
2023-01-30T23:24:01.458Z,5.72
2023-01-30T23:26:51.087Z,5.72
2023-01-30T23:29:42.722Z,6.25
2023-01-30T23:32:35.639Z,5.47
2023-01-30T23:35:23.481Z,5.25
2023-01-30T23:38:23.066Z,4.97
2023-01-30T23:41:13.779Z,5.03
2023-01-30T23:44:02.132Z,5.00
2023-01-30T23:46:49.892Z,7.47
2023-01-30T23:49:37.832Z,5.30
2023-01-30T23:52:25.496Z,5.43
2023-01-30T23:55:13.072Z,5.35
2023-01-30T23:58:00.818Z,5.57
